Time;durP1;ratioP1;P1;durP2;ratioP2;P2;SDS_P1;SDS_P2;PMS_P1;PMS_P2;Temp;Humidity;BMP_temperature;BMP_pressure;BME280_temperature;BME280_humidity;BME280_pressure;Samples;Min_cycle;Max_cycle;Signal;HPM_P1;HPM_P2
2022/04/22 00:01:47;;;;;;;;;;;;;;;;;;5067206;28;20135;-69
2022/04/22 00:04:14;;;;;;;;;;;;;;;;;;5065361;28;19931;-70
2022/04/22 00:06:40;;;;;;;;;;;;;;;;;;5069427;28;20376;-69
2022/04/22 00:09:06;;;;;;;;;;;;;;;;;;5068446;28;19925;-69
2022/04/22 00:11:32;;;;;;;;;;;;;;;;;;5066862;28;19931;-69
2022/04/22 00:13:58;;;;;;;;;;;;;;;;;;5066927;28;19947;-69
2022/04/22 00:16:25;;;;;;;;;;;;;;;;;;5067424;28;19988;-69
2022/04/22 00:18:51;;;;;;;;;;;;;;;;;;5067277;28;19948;-69
2022/04/22 00:21:17;;;;;;;;;;;;;;;;;;5067244;28;19931;-69
2022/04/22 00:23:43;;;;;;;;;;;;;;;;;;5068485;28;19935;-70
2022/04/22 00:26:09;;;;;;;;;;;;;;;;;;5068320;28;19932;-68
2022/04/22 00:28:35;;;;;;;;;;;;;;;;;;5068109;28;19924;-68
2022/04/22 00:31:02;;;;;;;;;;;;;;;;;;5066850;28;19939;-69
2022/04/22 00:33:28;;;;;;;;;;;;;;;;;;5061339;28;19929;-68
2022/04/22 00:35:54;;;;;;;;;;;;;;;;;;5061553;28;19925;-70
2022/04/22 00:38:20;;;;;;;;;;;;;;;;;;5061637;28;19925;-70
2022/04/22 00:40:46;;;;;;;;;;;;;;;;;;5064284;28;19932;-69
2022/04/22 00:43:12;;;;;;;;;;;;;;;;;;5060050;28;19940;-69
2022/04/22 00:45:39;;;;;;;;;;;;;;;;;;5051682;28;20020;-69
2022/04/22 00:48:05;;;;;;;;;;;;;;;;;;5051764;28;19931;-68
2022/04/22 00:50:31;;;;;;;;;;;;;;;;;;5052553;28;20226;-68
2022/04/22 00:52:57;;;;;;;;;;;;;;;;;;5052432;28;20019;-71
2022/04/22 00:55:23;;;;;;;;;;;;;;;;;;5052129;28;19925;-71
2022/04/22 00:57:49;;;;;;;;;;;;;;;;;;5051647;28;19951;-71
2022/04/22 01:00:16;;;;;;;;;;;;;;;;;;5051869;28;19925;-71
2022/04/22 01:02:42;;;;;;;;;;;;;;;;;;5051163;28;19929;-70
2022/04/22 01:10:36;;;;;;;;;;;;;;;;;;5050556;28;19920;-70
2022/04/22 01:13:02;;;;;;;;;;;;;;;;;;5050522;28;19929;-70
2022/04/22 01:15:28;;;;;;;;;;;;;;;;;;5048659;28;20012;-70
2022/04/22 01:17:54;;;;;;;;;;;;;;;;;;5046778;28;19925;-70
2022/04/22 01:20:20;;;;;;;;;;;;;;;;;;5051393;28;19933;-70
2022/04/22 01:22:47;;;;;;;;;;;;;;;;;;5051208;28;19925;-70
2022/04/22 01:25:13;;;;;;;;;;;;;;;;;;5050612;28;19925;-70
2022/04/22 01:27:39;;;;;;;;;;;;;;;;;;5054385;28;19976;-70
2022/04/22 01:30:06;;;;;;;;;;;;;;;;;;5055387;28;19932;-70
2022/04/22 01:32:32;;;;;;;;;;;;;;;;;;5054246;28;19929;-70
2022/04/22 01:34:58;;;;;;;;;;;;;;;;;;5054451;28;20212;-70
2022/04/22 01:37:24;;;;;;;;;;;;;;;;;;5054516;28;19931;-70
2022/04/22 01:39:51;;;;;;;;;;;;;;;;;;5055416;28;19932;-69
2022/04/22 01:42:18;;;;;;;;;;;;;;;;;;5053689;28;19925;-69
2022/04/22 01:44:44;;;;;;;;;;;;;;;;;;5052041;28;19925;-69
2022/04/22 01:47:10;;;;;;;;;;;;;;;;;;5054524;28;19925;-69
2022/04/22 01:49:37;;;;;;;;;;;;;;;;;;5053351;28;19924;-71
2022/04/22 01:52:03;;;;;;;;;;;;;;;;;;5053481;28;19931;-71
2022/04/22 01:54:29;;;;;;;;;;;;;;;;;;5058179;28;19933;-72
2022/04/22 01:56:55;;;;;;;;;;;;;;;;;;5053559;28;19925;-70
2022/04/22 01:59:21;;;;;;;;;;;;;;;;;;5054392;28;20301;-71
2022/04/22 02:01:47;;;;;;;;;;;;;;;;;;5055331;28;19924;-71
2022/04/22 02:04:13;;;;;;;;;;;;;;;;;;5053615;28;20024;-70
2022/04/22 02:06:40;;;;;;;;;;;;;;;;;;5054681;28;19925;-71
2022/04/22 02:09:06;;;;;;;;;;;;;;;;;;5056332;28;19925;-70
2022/04/22 02:11:32;;;;;;;;;;;;;;;;;;5075061;28;19939;-71
2022/04/22 02:13:58;;;;;;;;;;;;;;;;;;5067510;28;19935;-71
2022/04/22 02:16:24;;;;;;;;;;;;;;;;;;5067169;28;20367;-71
2022/04/22 02:18:51;;;;;;;;;;;;;;;;;;5055897;28;19924;-71
2022/04/22 02:21:17;;;;;;;;;;;;;;;;;;5054023;28;19924;-71
2022/04/22 02:23:44;;;;;;;;;;;;;;;;;;5053725;28;19925;-70
2022/04/22 02:26:10;;;;;;;;;;;;;;;;;;5053761;28;19924;-70
2022/04/22 02:28:35;;;;;;;;;;;;;;;;;;5053186;28;19925;-70
2022/04/22 02:31:01;;;;;;;;;;;;;;;;;;5059207;28;20415;-70
2022/04/22 02:33:27;;;;;;;;;;;;;;;;;;5052710;28;19925;-70
2022/04/22 02:35:54;;;;;;;;;;;;;;;;;;5053416;28;20321;-71
2022/04/22 02:38:20;;;;;;;;;;;;;;;;;;5052103;28;19925;-70
2022/04/22 02:46:14;;;;;;;;;;;;;;;;;;5051370;28;19931;-70
2022/04/22 02:48:40;;;;;;;;;;;;;;;;;;5052758;28;19931;-69
2022/04/22 02:51:10;;;;;;;;;;;;;;;;;;5053031;28;19925;-69
2022/04/22 02:53:36;;;;;;;;;;;;;;;;;;5103808;22;20436;-59
2022/04/22 02:56:02;;;;;;;;;;;;;;;;;;5093805;28;19924;-59
2022/04/22 02:58:28;;;;;;;;;;;;;;;;;;5091255;28;19931;-66
2022/04/22 03:00:55;;;;;;;;;;;;;;;;;;5089544;28;19924;-64
2022/04/22 03:03:21;;;;;;;;;;;;;;;;;;5091496;28;20395;-64
2022/04/22 03:05:47;;;;;;;;;;;;;;;;;;5091688;28;20388;-64
2022/04/22 03:08:13;;;;;;;;;;;;;;;;;;5091413;28;20003;-64
2022/04/22 03:10:39;;;;;;;;;;;;;;;;;;5084262;28;19924;-63
2022/04/22 03:13:06;;;;;;;;;;;;;;;;;;5091912;28;19928;-64
2022/04/22 03:15:33;;;;;;;;;;;;;;;;;;5087758;28;20022;-60
2022/04/22 03:17:59;;;;;;;;;;;;;;;;;;5087025;28;20328;-59
2022/04/22 03:20:25;;;;;;;;;;;;;;;;;;5089856;28;19924;-59
2022/04/22 03:22:51;;;;;;;;;;;;;;;;;;5090208;28;20294;-59
2022/04/22 03:25:20;;;;;;;;;;;;;;;;;;5085332;28;20407;-61
2022/04/22 03:27:46;;;;;;;;;;;;;;;;;;5091107;28;19974;-59
2022/04/22 03:30:12;;;;;;;;;;;;;;;;;;5090614;28;19931;-60
2022/04/22 03:32:38;;;;;;;;;;;;;;;;;;5091021;28;19932;-60
2022/04/22 03:35:04;;;;;;;;;;;;;;;;;;5090082;28;19931;-60
2022/04/22 03:37:31;;;;;;;;;;;;;;;;;;5089892;28;19924;-59
2022/04/22 03:39:57;;;;;;;;;;;;;;;;;;5084178;28;19991;-59
2022/04/22 03:42:23;;;;;;;;;;;;;;;;;;5090045;28;19924;-58
2022/04/22 03:44:49;;;;;;;;;;;;;;;;;;5089790;28;19924;-58
2022/04/22 03:47:15;;;;;;;;;;;;;;;;;;5088704;28;19937;-58
2022/04/22 03:49:41;;;;;;;;;;;;;;;;;;5089374;28;19950;-58
2022/04/22 03:52:08;;;;;;;;;;;;;;;;;;5089713;28;19935;-59
2022/04/22 03:54:34;;;;;;;;;;;;;;;;;;5088125;28;20338;-60
2022/04/22 03:59:44;;;;;;;;;;;;;;;;;;5083425;28;19965;-59
2022/04/22 04:02:10;;;;;;;;;;;;;;;;;;5090041;28;19924;-60
2022/04/22 04:04:36;;;;;;;;;;;;;;;;;;5085940;28;19932;-59
2022/04/22 04:07:02;;;;;;;;;;;;;;;;;;5090206;28;19931;-59
2022/04/22 04:17:40;;;;;;;;;;;;;;;;;;5084299;28;19994;-61
2022/04/22 04:25:34;;;;;;;;;;;;;;;;;;5081466;28;20301;-65
2022/04/22 04:28:00;;;;;;;;;;;;;;;;;;5090722;28;20101;-63
2022/04/22 04:30:26;;;;;;;;;;;;;;;;;;5089694;28;19928;-63
2022/04/22 04:32:52;;;;;;;;;;;;;;;;;;5091067;28;19924;-63
2022/04/22 04:35:19;;;;;;;;;;;;;;;;;;5090524;28;19973;-63
2022/04/22 04:37:45;;;;;;;;;;;;;;;;;;5090167;28;19940;-64
2022/04/22 04:40:11;;;;;;;;;;;;;;;;;;5085827;28;20388;-63
2022/04/22 04:42:37;;;;;;;;;;;;;;;;;;5090529;28;20300;-62
2022/04/22 04:45:03;;;;;;;;;;;;;;;;;;5089555;28;19932;-63
2022/04/22 04:47:31;;;;;;;;;;;;;;;;;;5088357;28;20305;-66
2022/04/22 04:49:57;;;;;;;;;;;;;;;;;;5089859;28;19932;-66
2022/04/22 04:52:23;;;;;;;;;;;;;;;;;;5089322;28;19931;-70
2022/04/22 04:54:51;;;;;;;;;;;;;;;;;;5090836;28;20007;-69
2022/04/22 04:57:19;;;;;;;;;;;;;;;;;;5090053;28;20022;-69
2022/04/22 04:59:45;;;;;;;;;;;;;;;;;;5090059;28;19993;-69
2022/04/22 05:02:12;;;;;;;;;;;;;;;;;;5091632;28;19994;-68
2022/04/22 05:04:38;;;;;;;;;;;;;;;;;;5094761;28;19971;-69
2022/04/22 05:07:04;;;;;;;;;;;;;;;;;;4386446;28;10000782;-71
2022/04/22 05:09:30;;;;;;;;;;;;;;;;;;5087054;28;19966;-69
2022/04/22 05:11:56;;;;;;;;;;;;;;;;;;5088667;28;19932;-69
2022/04/22 05:14:25;;;;;;;;;;;;;;;;;;5088502;28;19935;-70
2022/04/22 05:16:51;;;;;;;;;;;;;;;;;;5085267;28;20014;-70
2022/04/22 05:19:19;;;;;;;;;;;;;;;;;;5092955;28;20162;-69
2022/04/22 05:21:45;;;;;;;;;;;;;;;;;;5094441;28;20418;-70
2022/04/22 05:24:11;;;;;;;;;;;;;;;;;;5094170;28;19928;-69
2022/04/22 05:26:37;;;;;;;;;;;;;;;;;;5091932;28;19932;-70
2022/04/22 05:29:03;;;;;;;;;;;;;;;;;;5089098;28;20425;-70
2022/04/22 05:34:13;;;;;;;;;;;;;;;;;;5089058;28;20320;-71
2022/04/22 05:36:39;;;;;;;;;;;;;;;;;;5088606;28;19942;-69
2022/04/22 05:39:08;;;;;;;;;;;;;;;;;;5087447;28;19931;-69
2022/04/22 05:41:35;;;;;;;;;;;;;;;;;;5090331;28;19934;-69
2022/04/22 05:44:02;;;;;;;;;;;;;;;;;;5086529;28;19928;-69
2022/04/22 05:46:29;;;;;;;;;;;;;;;;;;5089810;28;19927;-68
2022/04/22 05:48:55;;;;;;;;;;;;;;;;;;5089448;28;20890;-69
2022/04/22 05:51:22;;;;;;;;;;;;;;;;;;5090060;28;19932;-69
2022/04/22 05:53:49;;;;;;;;;;;;;;;;;;5087429;28;19928;-70
2022/04/22 05:56:15;;;;;;;;;;;;;;;;;;5089710;28;19967;-69
2022/04/22 05:58:41;;;;;;;;;;;;;;;;;;5088578;28;20308;-69
2022/04/22 06:01:07;;;;;;;;;;;;;;;;;;5090501;28;19951;-68
2022/04/22 06:03:33;;;;;;;;;;;;;;;;;;5092120;28;19931;-68
2022/04/22 06:05:59;;;;;;;;;;;;;;;;;;5091420;28;19928;-68
2022/04/22 06:11:11;;;;;;;;;;;;;;;;;;5089673;28;19977;-69
2022/04/22 06:13:38;;;;;;;;;;;;;;;;;;5086146;28;20250;-69
2022/04/22 06:16:04;;;;;;;;;;;;;;;;;;5087183;28;19935;-70
2022/04/22 06:18:30;;;;;;;;;;;;;;;;;;5093460;28;19932;-70
2022/04/22 06:20:56;;;;;;;;;;;;;;;;;;5088334;28;19928;-69
2022/04/22 06:23:22;;;;;;;;;;;;;;;;;;5089189;28;20436;-68
2022/04/22 06:25:49;;;;;;;;;;;;;;;;;;5093461;28;19943;-69
2022/04/22 06:28:15;;;;;;;;;;;;;;;;;;5094210;28;19928;-70
2022/04/22 06:30:41;;;;;;;;;;;;;;;;;;5091562;28;19934;-69
2022/04/22 06:33:07;;;;;;;;;;;;;;;;;;5088773;28;19936;-70
2022/04/22 06:35:33;;;;;;;;;;;;;;;;;;5087800;28;19935;-69
2022/04/22 06:38:01;;;;;;;;;;;;;;;;;;5091422;28;19938;-69
2022/04/22 06:45:54;;;;;;;;;;;;;;;;;;5088100;28;19934;-69
2022/04/22 06:48:20;;;;;;;;;;;;;;;;;;5088407;28;19932;-70
2022/04/22 06:50:47;;;;;;;;;;;;;;;;;;5082389;28;19924;-69
2022/04/22 06:53:13;;;;;;;;;;;;;;;;;;5085603;28;19925;-70
2022/04/22 06:55:39;;;;;;;;;;;;;;;;;;5088812;28;20019;-69
2022/04/22 06:58:05;;;;;;;;;;;;;;;;;;5088667;28;19928;-69
2022/04/22 07:00:31;;;;;;;;;;;;;;;;;;5081797;28;19929;-69
2022/04/22 07:03:00;;;;;;;;;;;;;;;;;;5088757;28;19928;-69
2022/04/22 07:05:26;;;;;;;;;;;;;;;;;;5087136;28;19927;-69
2022/04/22 07:07:52;;;;;;;;;;;;;;;;;;5087399;28;19935;-69
2022/04/22 07:10:18;;;;;;;;;;;;;;;;;;5086633;28;19954;-69
2022/04/22 07:12:45;;;;;;;;;;;;;;;;;;5077518;28;20297;-69
2022/04/22 07:15:11;;;;;;;;;;;;;;;;;;5074839;28;19924;-70
2022/04/22 07:17:37;;;;;;;;;;;;;;;;;;5081484;28;19924;-70
2022/04/22 07:20:04;;;;;;;;;;;;;;;;;;5084580;28;19950;-69
2022/04/22 07:22:30;;;;;;;;;;;;;;;;;;5079378;28;20034;-69
2022/04/22 07:24:56;;;;;;;;;;;;;;;;;;5078202;28;19934;-69
2022/04/22 07:27:22;;;;;;;;;;;;;;;;;;5080444;28;19981;-68
2022/04/22 07:29:49;;;;;;;;;;;;;;;;;;5074584;28;19935;-69
2022/04/22 07:32:15;;;;;;;;;;;;;;;;;;5082135;28;20377;-69
2022/04/22 07:34:41;;;;;;;;;;;;;;;;;;5075709;28;19928;-69
2022/04/22 07:37:07;;;;;;;;;;;;;;;;;;5084041;28;19935;-70
2022/04/22 07:39:33;;;;;;;;;;;;;;;;;;5077482;28;19928;-69
2022/04/22 07:42:00;;;;;;;;;;;;;;;;;;5087508;28;20194;-69
2022/04/22 07:47:10;;;;;;;;;;;;;;;;;;5085767;28;20039;-69
2022/04/22 07:49:36;;;;;;;;;;;;;;;;;;5090482;28;19924;-69
2022/04/22 07:52:03;;;;;;;;;;;;;;;;;;5084570;28;20377;-70
2022/04/22 07:54:29;;;;;;;;;;;;;;;;;;5086944;28;19951;-70
2022/04/22 07:56:56;;;;;;;;;;;;;;;;;;5087908;28;19947;-69
2022/04/22 07:59:24;;;;;;;;;;;;;;;;;;5087057;28;19924;-69
2022/04/22 08:01:50;;;;;;;;;;;;;;;;;;5087229;28;19927;-69
2022/04/22 08:04:16;;;;;;;;;;;;;;;;;;5087121;28;20170;-69
2022/04/22 08:06:42;;;;;;;;;;;;;;;;;;5087994;28;19928;-69
2022/04/22 08:09:09;;;;;;;;;;;;;;;;;;5086758;28;19932;-70
2022/04/22 08:11:36;;;;;;;;;;;;;;;;;;5087069;28;20384;-69
2022/04/22 08:14:02;;;;;;;;;;;;;;;;;;5087708;28;19924;-70
2022/04/22 08:16:28;;;;;;;;;;;;;;;;;;5085876;28;19942;-69
2022/04/22 08:18:55;;;;;;;;;;;;;;;;;;5083132;28;19928;-69
2022/04/22 08:21:21;;;;;;;;;;;;;;;;;;5087292;28;20393;-69
2022/04/22 08:23:48;;;;;;;;;;;;;;;;;;5085444;28;20035;-69
2022/04/22 08:26:15;;;;;;;;;;;;;;;;;;5088906;28;20168;-69
2022/04/22 08:28:41;;;;;;;;;;;;;;;;;;5086846;28;19924;-70
2022/04/22 08:31:07;;;;;;;;;;;;;;;;;;5089090;28;19924;-69
2022/04/22 08:33:33;;;;;;;;;;;;;;;;;;5089438;28;20308;-70
2022/04/22 08:35:59;;;;;;;;;;;;;;;;;;5089058;28;20078;-69
2022/04/22 08:38:25;;;;;;;;;;;;;;;;;;5089423;28;19924;-70
2022/04/22 08:40:51;;;;;;;;;;;;;;;;;;5087577;28;19935;-70
2022/04/22 08:43:18;;;;;;;;;;;;;;;;;;5086930;28;19942;-70
2022/04/22 08:45:44;;;;;;;;;;;;;;;;;;5083460;28;19924;-69
2022/04/22 08:50:54;;;;;;;;;;;;;;;;;;5086702;28;19939;-68
2022/04/22 08:53:21;;;;;;;;;;;;;;;;;;5093472;22;20299;-67
2022/04/22 08:55:49;;;;;;;;;;;;;;;;;;5063068;28;19995;-66
2022/04/22 08:58:15;;;;;;;;;;;;;;;;;;5058068;28;19928;-68
2022/04/22 09:00:42;;;;;;;;;;;;;;;;;;5066766;28;19932;-67
2022/04/22 09:03:09;;;;;;;;;;;;;;;;;;5065291;28;19928;-66
2022/04/22 09:05:35;;;;;;;;;;;;;;;;;;5063122;28;19974;-66
2022/04/22 09:08:01;;;;;;;;;;;;;;;;;;5066259;28;19932;-66
2022/04/22 09:10:28;;;;;;;;;;;;;;;;;;5058334;28;19928;-66
2022/04/22 09:12:54;;;;;;;;;;;;;;;;;;5065518;28;19936;-67
2022/04/22 09:15:20;;;;;;;;;;;;;;;;;;5066089;28;20018;-67
2022/04/22 09:17:46;;;;;;;;;;;;;;;;;;5065602;28;19928;-66
2022/04/22 09:20:12;;;;;;;;;;;;;;;;;;5064786;28;19928;-66
2022/04/22 09:22:39;;;;;;;;;;;;;;;;;;5064580;28;19951;-66
2022/04/22 09:25:05;;;;;;;;;;;;;;;;;;5066269;28;19929;-66
2022/04/22 09:27:31;;;;;;;;;;;;;;;;;;5065184;28;20643;-66
2022/04/22 09:29:58;;;;;;;;;;;;;;;;;;5066601;28;19928;-67
2022/04/22 09:32:24;;;;;;;;;;;;;;;;;;5066463;28;19971;-67
2022/04/22 09:34:50;;;;;;;;;;;;;;;;;;5065843;28;20162;-67
2022/04/22 09:42:46;;;;;;;;;;;;;;;;;;5058964;28;19928;-67
2022/04/22 09:45:13;;;;;;;;;;;;;;;;;;5065977;28;20018;-67
2022/04/22 09:47:40;;;;;;;;;;;;;;;;;;5066747;28;20171;-66
2022/04/22 09:50:08;;;;;;;;;;;;;;;;;;5069959;28;19944;-66
2022/04/22 09:52:36;;;;;;;;;;;;;;;;;;5070244;28;20015;-67
2022/04/22 09:55:02;;;;;;;;;;;;;;;;;;5073303;28;20019;-66
2022/04/22 09:57:28;;;;;;;;;;;;;;;;;;5061385;28;19929;-66
2022/04/22 09:59:54;;;;;;;;;;;;;;;;;;5065042;28;19932;-66
2022/04/22 10:02:23;;;;;;;;;;;;;;;;;;5066736;28;20386;-65
2022/04/22 10:04:49;;;;;;;;;;;;;;;;;;5068416;28;19928;-65
2022/04/22 10:07:16;;;;;;;;;;;;;;;;;;5069158;28;19928;-65
2022/04/22 10:09:43;;;;;;;;;;;;;;;;;;5069561;28;20397;-67
2022/04/22 10:12:09;;;;;;;;;;;;;;;;;;5069488;28;19947;-66
2022/04/22 10:14:38;;;;;;;;;;;;;;;;;;5075138;28;19928;-67
2022/04/22 10:17:05;;;;;;;;;;;;;;;;;;5061998;28;19935;-67
2022/04/22 10:19:31;;;;;;;;;;;;;;;;;;5066310;28;19932;-67
2022/04/22 10:21:57;;;;;;;;;;;;;;;;;;5071442;28;19932;-67
2022/04/22 10:24:25;;;;;;;;;;;;;;;;;;5073492;28;20375;-67
2022/04/22 10:26:51;;;;;;;;;;;;;;;;;;5062452;28;19932;-65
2022/04/22 10:29:17;;;;;;;;;;;;;;;;;;5072220;28;19928;-66
2022/04/22 10:31:43;;;;;;;;;;;;;;;;;;5080773;28;19947;-66
2022/04/22 10:34:10;;;;;;;;;;;;;;;;;;5076075;28;19964;-68
2022/04/22 10:36:37;;;;;;;;;;;;;;;;;;5072528;28;19936;-68
2022/04/22 10:39:04;;;;;;;;;;;;;;;;;;5073468;28;19940;-68
2022/04/22 10:41:30;;;;;;;;;;;;;;;;;;5073458;28;19934;-68
2022/04/22 10:49:24;;;;;;;;;;;;;;;;;;5070772;28;20046;-69
2022/04/22 10:51:50;;;;;;;;;;;;;;;;;;5070925;28;19940;-69
2022/04/22 10:54:16;;;;;;;;;;;;;;;;;;5070400;28;20392;-69
2022/04/22 10:56:44;;;;;;;;;;;;;;;;;;5066187;28;20388;-69
2022/04/22 10:59:10;;;;;;;;;;;;;;;;;;5061092;28;19936;-68
2022/04/22 11:01:36;;;;;;;;;;;;;;;;;;5067236;28;19928;-70
2022/04/22 11:04:03;;;;;;;;;;;;;;;;;;5066427;28;20397;-69
2022/04/22 11:06:29;;;;;;;;;;;;;;;;;;5066768;28;19929;-69
2022/04/22 11:08:55;;;;;;;;;;;;;;;;;;5064748;28;19951;-70
2022/04/22 11:11:21;;;;;;;;;;;;;;;;;;5059740;28;19999;-71
2022/04/22 11:13:49;;;;;;;;;;;;;;;;;;5061036;28;19928;-70
2022/04/22 11:16:15;;;;;;;;;;;;;;;;;;5053010;28;19979;-67
2022/04/22 11:18:41;;;;;;;;;;;;;;;;;;5061495;28;19935;-66
2022/04/22 11:21:07;;;;;;;;;;;;;;;;;;5065031;28;20264;-66
2022/04/22 11:23:33;;;;;;;;;;;;;;;;;;5067256;28;19930;-65
2022/04/22 11:25:59;;;;;;;;;;;;;;;;;;5065247;28;19928;-66
2022/04/22 11:28:25;;;;;;;;;;;;;;;;;;5067033;28;20370;-68
2022/04/22 11:30:52;;;;;;;;;;;;;;;;;;5060109;28;19951;-66
2022/04/22 11:33:18;;;;;;;;;;;;;;;;;;5066238;28;19928;-66
2022/04/22 11:35:45;;;;;;;;;;;;;;;;;;5066860;28;19932;-66
2022/04/22 11:38:13;;;;;;;;;;;;;;;;;;5065838;28;19931;-66
2022/04/22 11:40:40;;;;;;;;;;;;;;;;;;5067871;28;20327;-66
2022/04/22 11:43:06;;;;;;;;;;;;;;;;;;5066557;28;20363;-66
2022/04/22 11:45:32;;;;;;;;;;;;;;;;;;5060679;28;20375;-68
2022/04/22 11:47:59;;;;;;;;;;;;;;;;;;5065944;28;19972;-67
2022/04/22 11:50:26;;;;;;;;;;;;;;;;;;5067227;28;19928;-68
2022/04/22 11:52:54;;;;;;;;;;;;;;;;;;5059512;28;19932;-67
2022/04/22 11:55:20;;;;;;;;;;;;;;;;;;5055731;28;19925;-67
2022/04/22 11:57:46;;;;;;;;;;;;;;;;;;5066837;28;20393;-67
2022/04/22 12:05:40;;;;;;;;;;;;;;;;;;5061522;28;20438;-66
2022/04/22 12:08:06;;;;;;;;;;;;;;;;;;5063489;28;20381;-69
2022/04/22 12:10:32;;;;;;;;;;;;;;;;;;5077207;28;19977;-68
2022/04/22 12:13:00;;;;;;;;;;;;;;;;;;5083263;28;19924;-69
2022/04/22 12:15:27;;;;;;;;;;;;;;;;;;5079283;28;19975;-67
2022/04/22 12:17:53;;;;;;;;;;;;;;;;;;5069855;28;19936;-70
2022/04/22 12:20:19;;;;;;;;;;;;;;;;;;5071254;28;19932;-70
2022/04/22 12:22:45;;;;;;;;;;;;;;;;;;5076836;28;19928;-70
2022/04/22 12:25:11;;;;;;;;;;;;;;;;;;5083616;28;19928;-69
2022/04/22 12:27:37;;;;;;;;;;;;;;;;;;5078154;28;19913;-69
2022/04/22 12:30:03;;;;;;;;;;;;;;;;;;5081498;28;19944;-70
2022/04/22 12:32:31;;;;;;;;;;;;;;;;;;5077633;28;19932;-70
2022/04/22 12:34:57;;;;;;;;;;;;;;;;;;5076392;28;20478;-68
2022/04/22 12:37:24;;;;;;;;;;;;;;;;;;5074001;28;19933;-70
2022/04/22 12:39:51;;;;;;;;;;;;;;;;;;5078566;28;19935;-68
2022/04/22 12:42:17;;;;;;;;;;;;;;;;;;5077711;28;19924;-68
2022/04/22 12:52:07;;;;;;;;;;;;;;;;;;5079759;28;20412;-71
2022/04/22 12:52:57;;;;;;;;;;;;;;;;;;5062862;28;20017;-68
2022/04/22 12:55:24;;;;;;;;;;;;;;;;;;5068807;28;19928;-68
2022/04/22 12:57:50;;;;;;;;;;;;;;;;;;5065025;28;19936;-69
2022/04/22 13:00:16;;;;;;;;;;;;;;;;;;5073022;28;19954;-69
2022/04/22 13:02:42;;;;;;;;;;;;;;;;;;5066104;28;19983;-69
2022/04/22 13:05:08;;;;;;;;;;;;;;;;;;5069686;28;19947;-68
2022/04/22 13:07:35;;;;;;;;;;;;;;;;;;5070503;28;19928;-69
2022/04/22 13:10:02;;;;;;;;;;;;;;;;;;5070326;28;19933;-69
2022/04/22 13:12:28;;;;;;;;;;;;;;;;;;5068267;28;19936;-68
2022/04/22 13:14:54;;;;;;;;;;;;;;;;;;5067212;28;19925;-68
2022/04/22 13:17:20;;;;;;;;;;;;;;;;;;5063428;28;20229;-69
2022/04/22 13:19:47;;;;;;;;;;;;;;;;;;5059697;28;19939;-69
2022/04/22 13:22:13;;;;;;;;;;;;;;;;;;5065669;28;19924;-65
2022/04/22 13:24:40;;;;;;;;;;;;;;;;;;5071174;28;19946;-65
2022/04/22 13:27:07;;;;;;;;;;;;;;;;;;5068768;28;19932;-66
2022/04/22 13:29:33;;;;;;;;;;;;;;;;;;5069636;28;19924;-66
2022/04/22 13:31:59;;;;;;;;;;;;;;;;;;5067694;28;19929;-66
2022/04/22 13:34:26;;;;;;;;;;;;;;;;;;5063706;28;19928;-66
2022/04/22 13:36:52;;;;;;;;;;;;;;;;;;5062216;28;20061;-66
2022/04/22 13:39:18;;;;;;;;;;;;;;;;;;5068931;28;19939;-69
2022/04/22 13:41:44;;;;;;;;;;;;;;;;;;5070211;28;20198;-68
2022/04/22 13:44:10;;;;;;;;;;;;;;;;;;5069053;28;20019;-68
2022/04/22 13:52:25;;;;;;;;;;;;;;;;;;5069495;28;19974;-68
2022/04/22 13:54:52;;;;;;;;;;;;;;;;;;5068727;28;19935;-68
2022/04/22 13:57:18;;;;;;;;;;;;;;;;;;5067973;28;20361;-68
2022/04/22 13:59:45;;;;;;;;;;;;;;;;;;5064626;28;20049;-68
2022/04/22 14:02:11;;;;;;;;;;;;;;;;;;5069678;28;19940;-67
2022/04/22 14:04:37;;;;;;;;;;;;;;;;;;5068828;28;19936;-72
2022/04/22 14:07:03;;;;;;;;;;;;;;;;;;5067619;28;20214;-69
2022/04/22 14:09:29;;;;;;;;;;;;;;;;;;5072114;28;20516;-70
2022/04/22 14:11:56;;;;;;;;;;;;;;;;;;5066980;28;19928;-70
2022/04/22 14:14:24;;;;;;;;;;;;;;;;;;5071415;28;19940;-70
2022/04/22 14:16:50;;;;;;;;;;;;;;;;;;5068947;28;19996;-70
2022/04/22 14:19:17;;;;;;;;;;;;;;;;;;5069976;28;20393;-70
2022/04/22 14:21:43;;;;;;;;;;;;;;;;;;5065806;28;19947;-70
2022/04/22 14:24:09;;;;;;;;;;;;;;;;;;5070112;28;19924;-69
2022/04/22 14:26:35;;;;;;;;;;;;;;;;;;5067365;28;19925;-70
2022/04/22 14:29:02;;;;;;;;;;;;;;;;;;5068639;28;19997;-70
2022/04/22 14:31:28;;;;;;;;;;;;;;;;;;5069419;28;20440;-70
2022/04/22 14:33:54;;;;;;;;;;;;;;;;;;5066361;28;19928;-69
2022/04/22 14:36:20;;;;;;;;;;;;;;;;;;5067234;28;19939;-70
2022/04/22 14:38:48;;;;;;;;;;;;;;;;;;5070182;28;19929;-69
2022/04/22 14:41:15;;;;;;;;;;;;;;;;;;5069510;28;20357;-70
2022/04/22 14:43:41;;;;;;;;;;;;;;;;;;5069654;28;19981;-70
2022/04/22 14:46:07;;;;;;;;;;;;;;;;;;5061290;28;20001;-70
2022/04/22 14:48:33;;;;;;;;;;;;;;;;;;5065756;28;20039;-71
2022/04/22 14:51:00;;;;;;;;;;;;;;;;;;5069330;28;19932;-69
2022/04/22 14:53:26;;;;;;;;;;;;;;;;;;5065546;28;19928;-69
2022/04/22 14:55:52;;;;;;;;;;;;;;;;;;5096506;22;19928;-69
2022/04/22 14:58:18;;;;;;;;;;;;;;;;;;5089689;28;20364;-68
2022/04/22 15:00:44;;;;;;;;;;;;;;;;;;5089424;28;19951;-69
2022/04/22 15:03:12;;;;;;;;;;;;;;;;;;5088077;28;19928;-69
2022/04/22 15:05:38;;;;;;;;;;;;;;;;;;5079430;28;19929;-69
2022/04/22 15:08:04;;;;;;;;;;;;;;;;;;5070344;28;19928;-68
2022/04/22 15:10:32;;;;;;;;;;;;;;;;;;5068630;28;19932;-69
2022/04/22 15:12:58;;;;;;;;;;;;;;;;;;5069424;28;20334;-66
2022/04/22 15:15:24;;;;;;;;;;;;;;;;;;5066967;28;20296;-67
2022/04/22 15:26:02;;;;;;;;;;;;;;;;;;5066293;28;19969;-68
2022/04/22 15:28:28;;;;;;;;;;;;;;;;;;5066788;28;19932;-68
2022/04/22 15:30:54;;;;;;;;;;;;;;;;;;5067926;28;19925;-67
2022/04/22 15:33:20;;;;;;;;;;;;;;;;;;5068434;28;19939;-68
2022/04/22 15:35:46;;;;;;;;;;;;;;;;;;5068679;28;19982;-67
2022/04/22 15:38:13;;;;;;;;;;;;;;;;;;5069023;28;19924;-67
2022/04/22 15:40:40;;;;;;;;;;;;;;;;;;5083980;28;20150;-67
2022/04/22 15:43:06;;;;;;;;;;;;;;;;;;5068206;28;19940;-67
2022/04/22 15:45:32;;;;;;;;;;;;;;;;;;5068214;28;19937;-67
2022/04/22 15:47:58;;;;;;;;;;;;;;;;;;5067940;28;20098;-68
2022/04/22 15:50:24;;;;;;;;;;;;;;;;;;4717749;28;10000385;-67
2022/04/22 15:52:50;;;;;;;;;;;;;;;;;;5065481;28;19936;-68
2022/04/22 15:55:17;;;;;;;;;;;;;;;;;;5061596;28;20251;-68
2022/04/22 15:57:43;;;;;;;;;;;;;;;;;;5064758;28;19932;-68
2022/04/22 16:00:09;;;;;;;;;;;;;;;;;;5060290;28;19958;-67
2022/04/22 16:02:35;;;;;;;;;;;;;;;;;;5066108;28;19928;-69
2022/04/22 16:05:01;;;;;;;;;;;;;;;;;;5062581;28;20320;-67
2022/04/22 16:07:27;;;;;;;;;;;;;;;;;;5062052;28;19928;-67
2022/04/22 16:09:54;;;;;;;;;;;;;;;;;;5064866;28;19928;-68
2022/04/22 16:15:18;;;;;;;;;;;;;;;;;;5040298;28;19931;-68
2022/04/22 16:17:45;;;;;;;;;;;;;;;;;;5063060;28;20096;-68
2022/04/22 16:20:11;;;;;;;;;;;;;;;;;;5065180;28;19929;-68
2022/04/22 16:22:38;;;;;;;;;;;;;;;;;;5065008;28;19935;-67
2022/04/22 16:25:05;;;;;;;;;;;;;;;;;;5064237;28;19929;-67
2022/04/22 16:27:31;;;;;;;;;;;;;;;;;;5062485;28;19942;-68
2022/04/22 16:29:57;;;;;;;;;;;;;;;;;;5068501;28;19928;-67
2022/04/22 16:32:23;;;;;;;;;;;;;;;;;;5067783;28;19971;-68
2022/04/22 16:34:49;;;;;;;;;;;;;;;;;;5067813;28;19928;-67
2022/04/22 16:37:15;;;;;;;;;;;;;;;;;;5066985;28;19932;-66
2022/04/22 16:39:42;;;;;;;;;;;;;;;;;;5066689;28;19928;-68
2022/04/22 16:42:08;;;;;;;;;;;;;;;;;;5066993;28;19928;-67
2022/04/22 16:44:37;;;;;;;;;;;;;;;;;;5066153;28;19935;-65
2022/04/22 16:47:03;;;;;;;;;;;;;;;;;;5064777;28;20301;-67
2022/04/22 16:49:29;;;;;;;;;;;;;;;;;;5065607;28;20216;-67
2022/04/22 16:51:55;;;;;;;;;;;;;;;;;;5066080;28;19928;-66
2022/04/22 16:54:21;;;;;;;;;;;;;;;;;;5065162;28;19940;-67
2022/04/22 16:56:47;;;;;;;;;;;;;;;;;;5064665;28;19933;-67
2022/04/22 16:59:13;;;;;;;;;;;;;;;;;;5067518;28;19925;-67
2022/04/22 17:01:40;;;;;;;;;;;;;;;;;;5070026;28;19928;-66
2022/04/22 17:04:06;;;;;;;;;;;;;;;;;;5070594;28;19935;-66
2022/04/22 17:06:32;;;;;;;;;;;;;;;;;;5071936;28;20110;-68
2022/04/22 17:08:58;;;;;;;;;;;;;;;;;;5073821;28;19928;-66
2022/04/22 17:11:24;;;;;;;;;;;;;;;;;;5075301;28;19928;-67
2022/04/22 17:13:50;;;;;;;;;;;;;;;;;;5074851;28;19931;-67
2022/04/22 17:24:29;;;;;;;;;;;;;;;;;;5057083;28;20345;-68
2022/04/22 17:26:55;;;;;;;;;;;;;;;;;;5065862;28;19928;-66
2022/04/22 17:29:23;;;;;;;;;;;;;;;;;;5068183;28;20244;-67
2022/04/22 17:31:51;;;;;;;;;;;;;;;;;;5067636;28;20015;-67
2022/04/22 17:34:17;;;;;;;;;;;;;;;;;;5068074;28;19935;-68
2022/04/22 17:36:43;;;;;;;;;;;;;;;;;;5067033;28;19928;-67
2022/04/22 17:39:09;;;;;;;;;;;;;;;;;;5077472;28;19934;-66
2022/04/22 17:41:35;;;;;;;;;;;;;;;;;;5073830;28;19939;-67
2022/04/22 17:44:02;;;;;;;;;;;;;;;;;;5069394;28;19931;-67
2022/04/22 17:46:28;;;;;;;;;;;;;;;;;;5071247;28;19979;-67
2022/04/22 17:48:54;;;;;;;;;;;;;;;;;;5070185;28;19924;-66
2022/04/22 17:51:20;;;;;;;;;;;;;;;;;;5065150;28;20366;-67
2022/04/22 17:53:46;;;;;;;;;;;;;;;;;;5070557;28;20454;-67
2022/04/22 17:56:12;;;;;;;;;;;;;;;;;;5068944;28;19958;-66
2022/04/22 17:58:39;;;;;;;;;;;;;;;;;;5074637;28;19967;-68
2022/04/22 18:01:06;;;;;;;;;;;;;;;;;;5068131;28;19976;-67
2022/04/22 18:03:32;;;;;;;;;;;;;;;;;;5070007;28;19928;-66
2022/04/22 18:05:58;;;;;;;;;;;;;;;;;;5070336;28;19933;-66
2022/04/22 18:08:25;;;;;;;;;;;;;;;;;;5074791;28;20412;-67
2022/04/22 18:10:51;;;;;;;;;;;;;;;;;;5066837;28;20023;-68